Time;durP1;ratioP1;P1;durP2;ratioP2;P2;SDS_P1;SDS_P2;PMS_P1;PMS_P2;Temp;Humidity;BMP_temperature;BMP_pressure;BME280_temperature;BME280_humidity;BME280_pressure;Samples;Min_cycle;Max_cycle;Signal;HPM_P1;HPM_P2
2024/04/20 00:00:07;;;;;;;3.63;3.33;;;;;;;;;;5563657;25;20565;-82
2024/04/20 00:02:36;;;;;;;3.40;3.10;;;;;;;;;;5563335;25;20596;-81
2024/04/20 00:05:04;;;;;;;7.73;3.80;;;;;;;;;;5564069;25;20242;-81
2024/04/20 00:07:33;;;;;;;5.23;3.20;;;;;;;;;;5563882;25;20740;-81
2024/04/20 00:09:59;;;;;;;5.97;4.73;;;;;;;;;;5563385;25;20269;-82
2024/04/20 00:12:30;;;;;;;4.27;3.87;;;;;;;;;;5566679;25;20597;-82
2024/04/20 00:14:59;;;;;;;3.00;2.80;;;;;;;;;;5544146;25;20575;-82
2024/04/20 00:17:27;;;;;;;2.60;2.40;;;;;;;;;;5563267;25;20227;-81
2024/04/20 00:19:56;;;;;;;3.07;2.80;;;;;;;;;;5563122;25;20269;-81
2024/04/20 00:22:24;;;;;;;2.90;2.70;;;;;;;;;;5563669;25;20581;-81
2024/04/20 00:24:53;;;;;;;3.57;3.23;;;;;;;;;;5563285;25;20230;-81
2024/04/20 00:27:22;;;;;;;3.73;3.40;;;;;;;;;;5563254;25;20275;-81
2024/04/20 00:29:54;;;;;;;3.47;3.10;;;;;;;;;;5563665;25;20294;-81
2024/04/20 00:32:22;;;;;;;2.40;2.20;;;;;;;;;;5563589;25;20265;-82
2024/04/20 00:34:51;;;;;;;2.77;2.57;;;;;;;;;;5562705;25;20796;-81
2024/04/20 00:37:19;;;;;;;2.77;2.57;;;;;;;;;;5563822;25;20282;-81
2024/04/20 00:39:47;;;;;;;4.03;2.90;;;;;;;;;;5563085;25;20717;-81
2024/04/20 00:42:16;;;;;;;2.97;2.53;;;;;;;;;;5563481;25;20763;-82
2024/04/20 00:44:44;;;;;;;3.27;2.97;;;;;;;;;;5562971;25;20717;-81
2024/04/20 00:47:15;;;;;;;3.40;3.10;;;;;;;;;;5563766;25;20556;-81
2024/04/20 00:49:44;;;;;;;2.77;2.57;;;;;;;;;;5562655;25;20716;-82
2024/04/20 00:52:12;;;;;;;2.90;2.70;;;;;;;;;;5563155;25;20780;-82
2024/04/20 00:54:41;;;;;;;3.23;3.00;;;;;;;;;;5562097;25;20227;-81
2024/04/20 00:57:10;;;;;;;3.70;3.40;;;;;;;;;;5562650;25;20235;-81
2024/04/20 00:59:39;;;;;;;3.97;3.57;;;;;;;;;;5562347;25;20285;-81
2024/04/20 01:02:08;;;;;;;3.97;3.60;;;;;;;;;;5562805;25;20234;-81
2024/04/20 01:04:39;;;;;;;3.83;3.47;;;;;;;;;;5562346;25;20234;-82
2024/04/20 01:07:07;;;;;;;3.97;3.63;;;;;;;;;;5549688;25;20251;-81
2024/04/20 01:09:36;;;;;;;3.53;3.23;;;;;;;;;;5560347;25;20226;-81
2024/04/20 01:12:05;;;;;;;3.33;3.03;;;;;;;;;;5562657;25;20330;-82
2024/04/20 01:14:33;;;;;;;3.23;2.97;;;;;;;;;;5562158;25;20270;-81
2024/04/20 01:17:02;;;;;;;3.53;3.23;;;;;;;;;;5562890;25;20230;-81
2024/04/20 01:19:31;;;;;;;3.67;3.37;;;;;;;;;;5562277;25;20269;-81
2024/04/20 01:22:02;;;;;;;3.63;3.13;;;;;;;;;;5562535;25;20234;-81
2024/04/20 01:24:31;;;;;;;3.63;3.33;;;;;;;;;;5562621;25;20277;-81
2024/04/20 01:27:02;;;;;;;3.00;2.80;;;;;;;;;;5562472;25;20230;-81
2024/04/20 01:29:30;;;;;;;4.07;3.67;;;;;;;;;;5562143;25;20234;-81
2024/04/20 01:31:59;;;;;;;3.90;3.60;;;;;;;;;;5562041;25;20725;-81
2024/04/20 01:34:28;;;;;;;3.63;3.33;;;;;;;;;;5562365;25;20246;-81
2024/04/20 01:36:56;;;;;;;2.93;2.73;;;;;;;;;;5562364;25;20336;-82
2024/04/20 01:39:25;;;;;;;3.07;2.87;;;;;;;;;;5562103;25;20230;-81
2024/04/20 01:41:53;;;;;;;2.67;2.47;;;;;;;;;;5561896;25;20326;-81
2024/04/20 01:44:24;;;;;;;3.13;2.83;;;;;;;;;;5562147;25;20269;-81
2024/04/20 01:46:53;;;;;;;3.40;3.10;;;;;;;;;;5562034;25;20290;-81
2024/04/20 01:49:21;;;;;;;3.10;2.90;;;;;;;;;;5561874;25;20231;-81
2024/04/20 01:51:50;;;;;;;3.27;2.97;;;;;;;;;;5562283;25;20223;-81
2024/04/20 01:54:18;;;;;;;3.33;3.03;;;;;;;;;;5561794;25;20227;-81
2024/04/20 01:56:47;;;;;;;3.93;2.97;;;;;;;;;;5561637;25;20313;-81
2024/04/20 01:59:15;;;;;;;4.60;3.47;;;;;;;;;;5561587;25;20713;-82
2024/04/20 02:01:51;;;;;;;4.07;3.23;;;;;;;;;;5561725;25;20713;-82
2024/04/20 02:04:19;;;;;;;3.23;2.93;;;;;;;;;;5561520;25;20341;-81
2024/04/20 02:06:48;;;;;;;4.97;3.67;;;;;;;;;;5564048;25;20230;-81
2024/04/20 02:09:16;;;;;;;3.70;3.40;;;;;;;;;;5565104;25;20569;-82
2024/04/20 02:11:45;;;;;;;3.50;3.30;;;;;;;;;;5565470;25;20231;-82
2024/04/20 02:14:13;;;;;;;4.87;4.47;;;;;;;;;;5563950;25;20290;-82
2024/04/20 02:16:42;;;;;;;5.93;5.00;;;;;;;;;;5565426;25;20227;-82
2024/04/20 02:19:13;;;;;;;6.30;4.63;;;;;;;;;;5565077;25;20227;-81
2024/04/20 02:21:42;;;;;;;4.63;4.23;;;;;;;;;;5565523;25;20234;-82
2024/04/20 02:24:11;;;;;;;4.23;3.93;;;;;;;;;;5565117;25;20227;-81
2024/04/20 02:26:40;;;;;;;4.60;4.10;;;;;;;;;;5565355;25;20234;-82
2024/04/20 02:29:08;;;;;;;4.67;4.20;;;;;;;;;;5564907;25;20321;-82
2024/04/20 02:31:37;;;;;;;4.30;3.90;;;;;;;;;;5565223;25;20230;-82
2024/04/20 02:34:05;;;;;;;4.07;3.60;;;;;;;;;;5565028;25;20253;-82
2024/04/20 02:36:36;;;;;;;4.30;3.90;;;;;;;;;;5565210;25;20262;-82
2024/04/20 02:39:05;;;;;;;3.67;3.13;;;;;;;;;;5564898;25;20273;-81
2024/04/20 02:41:33;;;;;;;4.13;3.73;;;;;;;;;;5565138;25;20686;-82
2024/04/20 02:44:02;;;;;;;3.27;3.07;;;;;;;;;;5565450;25;20261;-82
2024/04/20 02:46:32;;;;;;;3.80;3.47;;;;;;;;;;5564662;25;20238;-82
2024/04/20 02:49:00;;;;;;;3.97;3.33;;;;;;;;;;5565287;25;20234;-82
2024/04/20 02:51:29;;;;;;;3.20;2.97;;;;;;;;;;5564928;25;20235;-82
2024/04/20 02:54:00;;;;;;;3.63;3.20;;;;;;;;;;5564531;25;20234;-82
2024/04/20 02:56:28;;;;;;;3.63;3.33;;;;;;;;;;5565031;25;20226;-82
2024/04/20 02:58:58;;;;;;;3.90;3.57;;;;;;;;;;5564725;25;20274;-82
2024/04/20 03:01:27;;;;;;;4.23;3.83;;;;;;;;;;5564680;25;20234;-83
2024/04/20 03:03:55;;;;;;;10.30;5.80;;;;;;;;;;5564912;25;20235;-82
2024/04/20 03:06:24;;;;;;;6.53;5.93;;;;;;;;;;5564414;25;20264;-82
2024/04/20 03:08:53;;;;;;;5.53;4.83;;;;;;;;;;5564548;25;20281;-82
2024/04/20 03:11:24;;;;;;;4.93;4.40;;;;;;;;;;5537482;25;20234;-82
2024/04/20 03:13:53;;;;;;;5.10;4.00;;;;;;;;;;5561355;25;20254;-82
2024/04/20 03:16:22;;;;;;;4.90;4.50;;;;;;;;;;5563830;25;20222;-82
2024/04/20 03:18:51;;;;;;;4.13;3.73;;;;;;;;;;5564303;25;20273;-82
2024/04/20 03:21:19;;;;;;;4.67;3.90;;;;;;;;;;5564155;25;20721;-83
2024/04/20 03:23:48;;;;;;;3.77;3.43;;;;;;;;;;5564199;25;20269;-82
2024/04/20 03:26:16;;;;;;;4.23;3.87;;;;;;;;;;5564408;25;20626;-83
2024/04/20 03:28:47;;;;;;;3.80;3.40;;;;;;;;;;5564186;25;20332;-82
2024/04/20 03:31:16;;;;;;;4.40;4.00;;;;;;;;;;5564426;25;20573;-82
2024/04/20 03:33:44;;;;;;;4.93;3.50;;;;;;;;;;5564365;25;20226;-82
2024/04/20 03:36:12;;;;;;;5.73;5.23;;;;;;;;;;5554732;25;20226;-80
2024/04/20 03:38:41;;;;;;;12.07;9.33;;;;;;;;;;5564307;25;20371;-80
2024/04/20 03:41:10;;;;;;;6.47;5.87;;;;;;;;;;5563737;25;20278;-80
2024/04/20 03:43:38;;;;;;;4.73;3.87;;;;;;;;;;5564208;25;20290;-80
2024/04/20 03:46:09;;;;;;;4.30;4.00;;;;;;;;;;5563540;25;20617;-81
2024/04/20 03:48:38;;;;;;;4.40;4.00;;;;;;;;;;5564157;25;20265;-80
2024/04/20 03:51:07;;;;;;;6.00;3.73;;;;;;;;;;5563610;25;20280;-81
2024/04/20 03:53:35;;;;;;;3.53;3.23;;;;;;;;;;5564132;25;20235;-80
2024/04/20 03:56:04;;;;;;;3.73;3.40;;;;;;;;;;5563194;25;20234;-80
2024/04/20 03:58:32;;;;;;;4.10;3.60;;;;;;;;;;5564550;25;20231;-78
2024/04/20 04:01:01;;;;;;;4.70;4.30;;;;;;;;;;5564037;25;20281;-80
2024/04/20 04:03:32;;;;;;;3.80;3.40;;;;;;;;;;5564537;25;20238;-80
2024/04/20 04:06:00;;;;;;;4.07;3.77;;;;;;;;;;5558013;25;20352;-80
2024/04/20 04:08:29;;;;;;;5.33;3.77;;;;;;;;;;5562762;25;20604;-80
2024/04/20 04:10:57;;;;;;;6.73;5.73;;;;;;;;;;5563286;25;20325;-80
2024/04/20 04:13:26;;;;;;;21.43;14.40;;;;;;;;;;5563112;25;20298;-80
2024/04/20 04:15:54;;;;;;;10.30;9.13;;;;;;;;;;5563269;25;20621;-80
2024/04/20 04:18:23;;;;;;;7.13;6.23;;;;;;;;;;5563595;25;20235;-80
2024/04/20 04:20:54;;;;;;;5.13;4.73;;;;;;;;;;5563383;25;20265;-79
2024/04/20 04:23:22;;;;;;;5.07;4.50;;;;;;;;;;5563875;25;20299;-80
2024/04/20 04:25:51;;;;;;;3.83;3.43;;;;;;;;;;5563370;25;20781;-80
2024/04/20 04:28:20;;;;;;;3.20;2.90;;;;;;;;;;5561889;25;20246;-80
2024/04/20 04:30:48;;;;;;;3.43;3.13;;;;;;;;;;5563128;25;20242;-79
2024/04/20 04:33:16;;;;;;;3.33;3.07;;;;;;;;;;5563471;25;20596;-80
2024/04/20 04:35:45;;;;;;;3.27;2.97;;;;;;;;;;5563243;25;20230;-80
2024/04/20 04:38:16;;;;;;;5.27;3.70;;;;;;;;;;5563234;25;20231;-80
2024/04/20 04:40:44;;;;;;;3.37;3.07;;;;;;;;;;5530816;25;20235;-80
2024/04/20 04:43:13;;;;;;;3.40;3.10;;;;;;;;;;5562659;25;20294;-80
2024/04/20 04:45:42;;;;;;;3.53;3.23;;;;;;;;;;5563203;25;20285;-80
2024/04/20 04:48:12;;;;;;;3.67;3.37;;;;;;;;;;5563108;25;20278;-80
2024/04/20 04:50:40;;;;;;;3.47;3.17;;;;;;;;;;5562965;25;20592;-80
2024/04/20 04:53:08;;;;;;;4.27;3.70;;;;;;;;;;5563215;25;20732;-80
2024/04/20 04:55:39;;;;;;;3.63;2.87;;;;;;;;;;5562770;25;20380;-80
2024/04/20 04:58:09;;;;;;;3.67;3.37;;;;;;;;;;5562486;25;20273;-80
2024/04/20 05:00:38;;;;;;;3.80;3.17;;;;;;;;;;5561440;25;20594;-80
2024/04/20 05:03:07;;;;;;;3.40;2.87;;;;;;;;;;5562030;25;20760;-80
2024/04/20 05:05:35;;;;;;;3.33;3.13;;;;;;;;;;5562801;25;20230;-80
2024/04/20 05:08:03;;;;;;;3.70;3.40;;;;;;;;;;5561463;25;20725;-80
2024/04/20 05:10:32;;;;;;;4.30;3.13;;;;;;;;;;5561641;25;20273;-80
2024/04/20 05:13:03;;;;;;;3.37;3.07;;;;;;;;;;5562352;25;20273;-80
2024/04/20 05:15:31;;;;;;;3.63;3.30;;;;;;;;;;5562813;25;20281;-80
2024/04/20 05:18:00;;;;;;;3.10;2.87;;;;;;;;;;5562314;25;20230;-80
2024/04/20 05:20:30;;;;;;;3.07;2.73;;;;;;;;;;5561725;25;20226;-81
2024/04/20 05:22:58;;;;;;;3.93;3.00;;;;;;;;;;5562675;25;20234;-80
2024/04/20 05:25:27;;;;;;;2.83;2.63;;;;;;;;;;5562201;25;20234;-80
2024/04/20 05:27:55;;;;;;;2.90;2.70;;;;;;;;;;5562481;25;20744;-80
2024/04/20 05:30:26;;;;;;;2.80;2.53;;;;;;;;;;5562218;25;20713;-80
2024/04/20 05:32:55;;;;;;;2.70;2.43;;;;;;;;;;5562311;25;20273;-80
2024/04/20 05:35:24;;;;;;;3.20;2.97;;;;;;;;;;5562397;25;20588;-77
2024/04/20 05:37:53;;;;;;;2.67;2.20;;;;;;;;;;5561865;25;20230;-78
2024/04/20 05:40:22;;;;;;;3.77;2.60;;;;;;;;;;5564276;25;20234;-80
2024/04/20 05:42:51;;;;;;;2.80;2.50;;;;;;;;;;5566042;25;20347;-79
2024/04/20 05:45:23;;;;;;;2.90;2.70;;;;;;;;;;5565443;25;20230;-80
2024/04/20 05:47:54;;;;;;;4.47;3.17;;;;;;;;;;5565872;25;20234;-79
2024/04/20 05:50:23;;;;;;;3.17;2.87;;;;;;;;;;5557319;25;20278;-80
2024/04/20 05:52:51;;;;;;;2.90;2.60;;;;;;;;;;5553816;25;20227;-79
2024/04/20 05:55:20;;;;;;;2.90;2.70;;;;;;;;;;5565134;25;20290;-80
2024/04/20 05:57:53;;;;;;;3.10;2.90;;;;;;;;;;5566733;25;20239;-77
2024/04/20 06:00:22;;;;;;;2.40;2.20;;;;;;;;;;5566719;25;20277;-79
2024/04/20 06:02:50;;;;;;;2.70;2.50;;;;;;;;;;5565377;25;20234;-79
2024/04/20 06:05:21;;;;;;;3.60;2.57;;;;;;;;;;5565139;25;20374;-80
2024/04/20 06:07:52;;;;;;;2.63;2.43;;;;;;;;;;5565457;25;20351;-80
2024/04/20 06:10:21;;;;;;;2.90;2.53;;;;;;;;;;5565331;25;20235;-80
2024/04/20 06:12:49;;;;;;;2.87;2.67;;;;;;;;;;5565546;25;20270;-80
2024/04/20 06:15:18;;;;;;;2.83;2.63;;;;;;;;;;5565105;25;20841;-80
2024/04/20 06:17:47;;;;;;;2.23;2.13;;;;;;;;;;5565310;25;20249;-79
2024/04/20 06:20:15;;;;;;;2.50;2.30;;;;;;;;;;5565392;25;20286;-79
2024/04/20 06:22:48;;;;;;;2.83;2.57;;;;;;;;;;5564766;25;20242;-80
2024/04/20 06:25:17;;;;;;;2.70;2.50;;;;;;;;;;5565370;25;20232;-79
2024/04/20 06:27:45;;;;;;;2.33;2.13;;;;;;;;;;5541057;25;20361;-79
2024/04/20 06:30:14;;;;;;;3.60;2.73;;;;;;;;;;5565473;25;20354;-79
2024/04/20 06:32:42;;;;;;;2.97;2.73;;;;;;;;;;5544782;25;20323;-80
2024/04/20 06:35:13;;;;;;;2.73;2.53;;;;;;;;;;5557963;25;20290;-80
2024/04/20 06:37:41;;;;;;;3.00;2.70;;;;;;;;;;5564948;25;20234;-81
2024/04/20 06:40:13;;;;;;;3.10;2.80;;;;;;;;;;5564738;25;20574;-80
2024/04/20 06:42:43;;;;;;;2.90;2.70;;;;;;;;;;5564552;25;20677;-80
2024/04/20 06:45:14;;;;;;;2.30;2.10;;;;;;;;;;5565001;25;20273;-80
2024/04/20 06:47:44;;;;;;;2.67;2.20;;;;;;;;;;5565315;25;20240;-80
2024/04/20 06:50:16;;;;;;;2.80;2.60;;;;;;;;;;5564613;25;20273;-81
2024/04/20 06:52:44;;;;;;;2.90;2.70;;;;;;;;;;5563917;25;20234;-81
2024/04/20 06:55:15;;;;;;;3.00;2.30;;;;;;;;;;5565058;25;20281;-80
2024/04/20 06:57:46;;;;;;;2.97;2.77;;;;;;;;;;5565167;25;20268;-80
2024/04/20 07:00:15;;;;;;;3.23;2.93;;;;;;;;;;5564718;25;20277;-80
2024/04/20 07:02:46;;;;;;;2.80;2.60;;;;;;;;;;5564687;25;20269;-80
2024/04/20 07:05:14;;;;;;;2.27;2.07;;;;;;;;;;5564514;25;20238;-80
2024/04/20 07:07:43;;;;;;;2.67;2.47;;;;;;;;;;5564633;25;20269;-80
2024/04/20 07:10:14;;;;;;;2.93;2.17;;;;;;;;;;5564465;25;20276;-81
2024/04/20 07:12:45;;;;;;;2.13;2.03;;;;;;;;;;5564926;25;20277;-80
2024/04/20 07:15:14;;;;;;;3.53;2.60;;;;;;;;;;5564596;25;20275;-80
2024/04/20 07:17:42;;;;;;;2.00;1.90;;;;;;;;;;5564242;25;20230;-80
2024/04/20 07:20:11;;;;;;;2.83;2.10;;;;;;;;;;5564617;25;20696;-81
2024/04/20 07:22:39;;;;;;;2.40;2.20;;;;;;;;;;5531850;25;20224;-81
2024/04/20 07:25:08;;;;;;;1.90;1.80;;;;;;;;;;5564488;25;20278;-81
2024/04/20 07:27:37;;;;;;;4.47;2.07;;;;;;;;;;5564162;25;20257;-81
2024/04/20 07:30:09;;;;;;;2.00;1.90;;;;;;;;;;5564421;25;20557;-80
2024/04/20 07:32:38;;;;;;;2.33;2.10;;;;;;;;;;5541930;25;20257;-80
2024/04/20 07:35:07;;;;;;;2.40;2.20;;;;;;;;;;5563769;25;20234;-80
2024/04/20 07:37:35;;;;;;;2.30;1.80;;;;;;;;;;5564549;25;20230;-80
2024/04/20 07:40:04;;;;;;;1.87;1.77;;;;;;;;;;5564033;25;20274;-80
2024/04/20 07:42:33;;;;;;;1.93;1.83;;;;;;;;;;5564291;25;20844;-81
2024/04/20 07:45:01;;;;;;;2.50;2.30;;;;;;;;;;5563513;25;20238;-80
2024/04/20 07:47:32;;;;;;;1.97;1.80;;;;;;;;;;5564123;25;20362;-80
2024/04/20 07:50:00;;;;;;;1.97;1.87;;;;;;;;;;5563653;25;20563;-80
2024/04/20 07:52:29;;;;;;;1.70;1.60;;;;;;;;;;5564151;25;20235;-80
2024/04/20 07:54:57;;;;;;;2.07;1.93;;;;;;;;;;5563819;25;20223;-80
2024/04/20 07:57:26;;;;;;;5.43;2.37;;;;;;;;;;5564151;25;20280;-81
2024/04/20 07:59:54;;;;;;;2.53;2.33;;;;;;;;;;5551645;25;20232;-80
2024/04/20 08:02:26;;;;;;;1.77;1.67;;;;;;;;;;5548882;25;20610;-81
2024/04/20 08:04:57;;;;;;;1.87;1.70;;;;;;;;;;5562895;25;20293;-80
2024/04/20 08:07:26;;;;;;;2.23;2.03;;;;;;;;;;5564055;25;20230;-80
2024/04/20 08:09:51;;;;;;;2.73;1.83;;;;;;;;;;5563743;25;20764;-80
2024/04/20 08:12:20;;;;;;;1.80;1.70;;;;;;;;;;5566053;25;20290;-80
2024/04/20 08:14:48;;;;;;;2.80;1.40;;;;;;;;;;5563971;25;20273;-80
2024/04/20 08:17:17;;;;;;;2.00;1.90;;;;;;;;;;5563367;25;20358;-80
2024/04/20 08:19:45;;;;;;;2.00;1.80;;;;;;;;;;5563369;25;20285;-80
2024/04/20 08:22:16;;;;;;;1.70;1.60;;;;;;;;;;5563670;25;20561;-80
2024/04/20 08:24:45;;;;;;;2.00;1.90;;;;;;;;;;5563510;25;20272;-80
2024/04/20 08:27:15;;;;;;;1.70;1.60;;;;;;;;;;5537372;25;20232;-79
2024/04/20 08:29:43;;;;;;;1.70;1.60;;;;;;;;;;5549397;25;20223;-82
2024/04/20 08:32:11;;;;;;;1.77;1.67;;;;;;;;;;5563307;25;20226;-82
2024/04/20 08:34:40;;;;;;;2.17;2.00;;;;;;;;;;5563291;25;20234;-81
2024/04/20 08:37:08;;;;;;;1.60;1.50;;;;;;;;;;5563185;25;20230;-79
2024/04/20 08:39:41;;;;;;;2.70;2.50;;;;;;;;;;5562921;25;20269;-80
2024/04/20 08:42:14;;;;;;;2.00;1.90;;;;;;;;;;5563149;25;20231;-81
2024/04/20 08:44:44;;;;;;;2.17;1.77;;;;;;;;;;5563112;25;20337;-81
2024/04/20 08:47:12;;;;;;;1.83;1.63;;;;;;;;;;5562774;25;20281;-82
2024/04/20 08:49:46;;;;;;;1.60;1.50;;;;;;;;;;5563267;25;20231;-81
2024/04/20 08:52:37;;;;;;;1.80;1.70;;;;;;;;;;5562817;25;20619;-81
2024/04/20 09:00:59;;;;;;;2.13;1.93;;;;;;;;;;5537066;25;20269;-81
2024/04/20 09:06:15;;;;;;;2.40;2.20;;;;;;;;;;5561907;25;20230;-81
2024/04/20 09:08:55;;;;;;;2.63;2.37;;;;;;;;;;5563283;25;20226;-82
2024/04/20 09:11:29;;;;;;;3.03;2.83;;;;;;;;;;5529863;25;20567;-82
2024/04/20 09:14:02;;;;;;;2.57;2.37;;;;;;;;;;5562923;25;20234;-82
2024/04/20 09:16:33;;;;;;;17.20;3.60;;;;;;;;;;5565649;25;20592;-82
2024/04/20 09:19:04;;;;;;;2.23;2.13;;;;;;;;;;5565182;25;20702;-81
2024/04/20 09:21:33;;;;;;;3.00;2.33;;;;;;;;;;5564302;25;20264;-81
2024/04/20 09:24:18;;;;;;;2.57;2.37;;;;;;;;;;5564429;25;20237;-82
2024/04/20 09:26:59;;;;;;;2.57;2.37;;;;;;;;;;5560046;25;20226;-82
2024/04/20 09:29:27;;;;;;;3.87;2.60;;;;;;;;;;5544180;25;20653;-81
2024/04/20 09:31:58;;;;;;;2.70;2.50;;;;;;;;;;5565490;25;20684;-81
2024/04/20 09:34:41;;;;;;;2.70;2.50;;;;;;;;;;5565129;25;20717;-81
2024/04/20 09:37:17;;;;;;;3.57;2.40;;;;;;;;;;5566053;25;20556;-81
2024/04/20 09:40:00;;;;;;;2.60;2.40;;;;;;;;;;5565956;25;20276;-81
2024/04/20 09:42:32;;;;;;;6.00;2.30;;;;;;;;;;5566088;25;20234;-81
2024/04/20 09:45:04;;;;;;;2.60;2.40;;;;;;;;;;5565010;25;20230;-81
2024/04/20 09:47:35;;;;;;;2.13;2.03;;;;;;;;;;5565663;25;20759;-82
2024/04/20 09:50:11;;;;;;;2.73;2.00;;;;;;;;;;5565585;25;20242;-81
2024/04/20 09:52:50;;;;;;;2.20;2.10;;;;;;;;;;5565990;25;20238;-81
2024/04/20 09:55:28;;;;;;;4.13;2.60;;;;;;;;;;5565942;25;20307;-81
2024/04/20 09:58:03;;;;;;;2.80;2.60;;;;;;;;;;5565406;25;20280;-82
2024/04/20 10:00:36;;;;;;;2.30;2.10;;;;;;;;;;5549544;25;20328;-81
2024/04/20 10:03:09;;;;;;;3.27;2.17;;;;;;;;;;5536331;25;20281;-82
2024/04/20 10:05:48;;;;;;;2.50;2.30;;;;;;;;;;5565446;25;20278;-82
2024/04/20 10:08:20;;;;;;;3.17;2.77;;;;;;;;;;5565369;25;20239;-82
2024/04/20 10:10:50;;;;;;;2.63;2.43;;;;;;;;;;5565756;25;20269;-81
2024/04/20 10:13:39;;;;;;;5.87;2.40;;;;;;;;;;5563925;25;20230;-82
2024/04/20 10:16:12;;;;;;;1.80;1.70;;;;;;;;;;5565124;25;20235;-81
2024/04/20 10:18:47;;;;;;;2.07;1.90;;;;;;;;;;5553186;25;20281;-81
2024/04/20 10:21:23;;;;;;;2.57;2.37;;;;;;;;;;5565313;25;20234;-82
2024/04/20 10:23:54;;;;;;;2.63;2.00;;;;;;;;;;5565265;25;20230;-81
2024/04/20 10:26:44;;;;;;;2.50;2.30;;;;;;;;;;5563858;25;20717;-81
2024/04/20 10:29:24;;;;;;;2.47;1.90;;;;;;;;;;5561273;25;20302;-81
2024/04/20 10:32:05;;;;;;;2.00;1.80;;;;;;;;;;5564866;25;20580;-82
2024/04/20 10:34:38;;;;;;;2.87;1.73;;;;;;;;;;5545046;25;20280;-79
2024/04/20 10:37:11;;;;;;;1.97;1.87;;;;;;;;;;5555617;25;20269;-79
2024/04/20 10:39:46;;;;;;;1.67;1.57;;;;;;;;;;5564651;25;20238;-79
2024/04/20 10:42:29;;;;;;;2.20;2.00;;;;;;;;;;5564830;25;20228;-80
2024/04/20 10:45:21;;;;;;;2.23;2.13;;;;;;;;;;5564833;25;20269;-79
2024/04/20 10:47:49;;;;;;;1.43;1.33;;;;;;;;;;5559981;25;20235;-78
2024/04/20 10:50:23;;;;;;;4.87;2.17;;;;;;;;;;5564973;25;20219;-78
2024/04/20 10:52:56;;;;;;;1.50;1.40;;;;;;;;;;5564694;25;20243;-78
2024/04/20 10:55:29;;;;;;;2.10;1.90;;;;;;;;;;5563523;25;20236;-78
2024/04/20 10:58:10;;;;;;;1.77;1.67;;;;;;;;;;5564378;25;20272;-80
2024/04/20 11:01:06;;;;;;;2.00;1.87;;;;;;;;;;5564325;25;20240;-80
2024/04/20 11:03:37;;;;;;;2.07;1.90;;;;;;;;;;5564534;25;20623;-79
2024/04/20 11:06:20;;;;;;;1.80;1.70;;;;;;;;;;5564401;25;20792;-80
2024/04/20 11:08:52;;;;;;;5.03;1.93;;;;;;;;;;5564688;25;20238;-80
2024/04/20 11:11:20;;;;;;;3.07;2.77;;;;;;;;;;5556383;25;20564;-80
2024/04/20 11:14:07;;;;;;;3.60;1.87;;;;;;;;;;5564588;25;20340;-80
2024/04/20 11:16:44;;;;;;;2.60;2.40;;;;;;;;;;5563016;25;20325;-80
2024/04/20 11:19:13;;;;;;;3.47;2.27;;;;;;;;;;5564266;25;20232;-80
2024/04/20 11:21:42;;;;;;;2.30;2.10;;;;;;;;;;5564124;25;20284;-79
2024/04/20 11:24:11;;;;;;;3.63;2.03;;;;;;;;;;5549926;25;20365;-80
2024/04/20 11:26:40;;;;;;;1.93;1.83;;;;;;;;;;5564417;25;20236;-79
2024/04/20 11:29:08;;;;;;;2.10;2.00;;;;;;;;;;5564170;25;20239;-79
2024/04/20 11:31:37;;;;;;;2.60;2.10;;;;;;;;;;5564241;25;20613;-80
2024/04/20 11:34:08;;;;;;;1.80;1.70;;;;;;;;;;5564080;25;20290;-79
2024/04/20 11:36:41;;;;;;;3.40;2.03;;;;;;;;;;5563112;25;20230;-80
2024/04/20 11:39:11;;;;;;;2.10;2.00;;;;;;;;;;5564121;25;20235;-79
2024/04/20 11:41:39;;;;;;;3.00;2.23;;;;;;;;;;5564224;25;20721;-79
2024/04/20 11:44:08;;;;;;;2.20;2.00;;;;;;;;;;5564378;25;20230;-79
2024/04/20 11:46:41;;;;;;;2.60;2.40;;;;;;;;;;5540143;25;20346;-79
2024/04/20 11:49:16;;;;;;;2.90;2.00;;;;;;;;;;5563763;25;20233;-79
2024/04/20 11:54:44;;;;;;;2.20;2.10;;;;;;;;;;5542958;25;20275;-80
2024/04/20 11:57:18;;;;;;;1.87;1.73;;;;;;;;;;5563785;25;20367;-80
2024/04/20 11:59:48;;;;;;;2.37;2.10;;;;;;;;;;5564294;25;20278;-80
2024/04/20 12:02:20;;;;;;;2.10;1.90;;;;;;;;;;5563319;25;20227;-80
2024/04/20 12:07:42;;;;;;;5.13;2.40;;;;;;;;;;5565891;25;20343;-80
2024/04/20 12:10:13;;;;;;;5.07;2.67;;;;;;;;;;5563840;25;20251;-79
2024/04/20 12:12:43;;;;;;;2.50;2.30;;;;;;;;;;5563429;25;20858;-79
2024/04/20 12:15:13;;;;;;;2.10;2.00;;;;;;;;;;5563658;25;20689;-84
2024/04/20 12:17:51;;;;;;;3.00;1.90;;;;;;;;;;5533863;25;20235;-80
2024/04/20 12:20:23;;;;;;;2.00;1.80;;;;;;;;;;5542133;25;20310;-80
2024/04/20 12:26:11;;;;;;;3.87;1.70;;;;;;;;;;5554877;25;20222;-80
2024/04/20 12:28:40;;;;;;;4.70;1.67;;;;;;;;;;5543104;25;20234;-79
2024/04/20 12:31:26;;;;;;;1.57;1.47;;;;;;;;;;5562057;25;20272;-79
2024/04/20 12:33:59;;;;;;;2.27;1.70;;;;;;;;;;5562795;25;20224;-79
2024/04/20 12:36:32;;;;;;;3.93;2.90;;;;;;;;;;5539273;25;20259;-79
2024/04/20 12:39:06;;;;;;;2.13;1.80;;;;;;;;;;5563362;25;20361;-81
2024/04/20 12:41:36;;;;;;;1.63;1.53;;;;;;;;;;5541013;25;20235;-80
2024/04/20 12:44:09;;;;;;;1.67;1.57;;;;;;;;;;5562962;25;20556;-80
2024/04/20 12:46:47;;;;;;;2.57;1.80;;;;;;;;;;5562652;25;20655;-79
2024/04/20 12:49:19;;;;;;;25.00;6.60;;;;;;;;;;5560594;25;20230;-79
2024/04/20 12:52:03;;;;;;;2.17;1.67;;;;;;;;;;5562080;25;20242;-79
2024/04/20 12:54:32;;;;;;;3.90;1.90;;;;;;;;;;5562768;25;20248;-79
2024/04/20 12:57:00;;;;;;;47.20;10.93;;;;;;;;;;5563020;25;20354;-79
2024/04/20 12:59:31;;;;;;;4.00;1.70;;;;;;;;;;5563190;25;20233;-79
2024/04/20 13:02:00;;;;;;;2.87;2.10;;;;;;;;;;5563196;25;20231;-79
2024/04/20 13:04:33;;;;;;;7.43;3.33;;;;;;;;;;5562601;25;20244;-79
2024/04/20 13:12:48;;;;;;;1.67;1.53;;;;;;;;;;5552416;25;20233;-80
2024/04/20 13:15:24;;;;;;;1.53;1.43;;;;;;;;;;5562523;25;20246;-79
2024/04/20 13:18:17;;;;;;;;;;;;;;;;;;;;;
2024/04/20 13:21:08;;;;;;;1.90;1.80;;;;;;;;;;5549318;25;20602;-79
2024/04/20 13:23:39;;;;;;;1.80;1.70;;;;;;;;;;5562244;25;20281;-79
2024/04/20 13:26:07;;;;;;;1.97;1.60;;;;;;;;;;5562295;25;20364;-79
2024/04/20 13:31:55;;;;;;;1.73;1.63;;;;;;;;;;5437483;25;20271;-80
2024/04/20 13:40:30;;;;;;;1.53;1.43;;;;;;;;;;5551447;25;20329;-84
2024/04/20 13:43:08;;;;;;;1.47;1.37;;;;;;;;;;5562214;25;20284;-80
2024/04/20 13:45:48;;;;;;;1.60;1.50;;;;;;;;;;5562196;25;20229;-80
2024/04/20 13:48:17;;;;;;;1.13;1.13;;;;;;;;;;5561815;25;20259;-80
2024/04/20 13:50:46;;;;;;;7.40;1.30;;;;;;;;;;5561893;25;20279;-80
2024/04/20 13:53:17;;;;;;;1.30;1.20;;;;;;;;;;5562017;25;20660;-80
2024/04/20 13:55:55;;;;;;;2.17;1.30;;;;;;;;;;5562144;25;20265;-80
2024/04/20 13:58:24;;;;;;;1.37;1.27;;;;;;;;;;5556978;25;20234;-79
2024/04/20 14:00:53;;;;;;;1.40;1.30;;;;;;;;;;5560122;25;20234;-80
2024/04/20 14:03:21;;;;;;;1.00;1.00;;;;;;;;;;5528775;25;20777;-80
2024/04/20 14:05:51;;;;;;;1.83;1.47;;;;;;;;;;5554865;25;20278;-80
2024/04/20 14:08:20;;;;;;;1.50;1.40;;;;;;;;;;5565801;25;20348;-80
2024/04/20 14:10:59;;;;;;;1.50;1.40;;;;;;;;;;5563918;25;20344;-80
2024/04/20 14:13:27;;;;;;;1.40;1.13;;;;;;;;;;5565581;25;20240;-80
2024/04/20 14:15:58;;;;;;;1.30;1.20;;;;;;;;;;5565060;25;20369;-80
2024/04/20 14:18:27;;;;;;;1.33;1.23;;;;;;;;;;5565413;25;20234;-80
2024/04/20 14:20:55;;;;;;;2.60;1.23;;;;;;;;;;5565288;25;20655;-80
2024/04/20 14:23:24;;;;;;;1.20;1.20;;;;;;;;;;5565297;25;20236;-80
2024/04/20 14:26:01;;;;;;;2.60;2.03;;;;;;;;;;5564828;25;20232;-80
2024/04/20 14:28:30;;;;;;;1.20;1.10;;;;;;;;;;5565037;25;20232;-80
2024/04/20 14:31:02;;;;;;;1.60;1.30;;;;;;;;;;5564882;25;20271;-80
2024/04/20 14:33:31;;;;;;;0.90;0.90;;;;;;;;;;5564936;25;20785;-80
2024/04/20 14:36:00;;;;;;;2.60;1.33;;;;;;;;;;5565066;25;20280;-80
2024/04/20 14:38:29;;;;;;;1.67;1.57;;;;;;;;;;5565020;25;20390;-80
2024/04/20 14:41:00;;;;;;;10.43;7.23;;;;;;;;;;5564993;25;20273;-80
2024/04/20 14:43:29;;;;;;;5.67;4.47;;;;;;;;;;5564505;25;20270;-80
2024/04/20 14:46:00;;;;;;;3.37;2.87;;;;;;;;;;5564973;25;20307;-79
2024/04/20 14:48:29;;;;;;;1.93;1.63;;;;;;;;;;5564866;25;20230;-80
2024/04/20 14:50:59;;;;;;;6.17;4.63;;;;;;;;;;5564735;25;20234;-80
2024/04/20 14:53:27;;;;;;;18.20;13.27;;;;;;;;;;5564607;25;20273;-80
2024/04/20 14:56:05;;;;;;;13.20;11.90;;;;;;;;;;5565134;25;20236;-80
2024/04/20 14:58:34;;;;;;;3.67;3.30;;;;;;;;;;5541171;25;20616;-79
2024/04/20 15:01:03;;;;;;;7.33;5.27;;;;;;;;;;5564941;25;20230;-79
2024/04/20 15:03:31;;;;;;;2.60;2.27;;;;;;;;;;5564996;25;20223;-80
2024/04/20 15:06:00;;;;;;;2.00;1.90;;;;;;;;;;5564653;25;20230;-80
2024/04/20 15:08:29;;;;;;;11.97;11.07;;;;;;;;;;5564629;25;20235;-79
2024/04/20 15:11:23;;;;;;;2.70;2.50;;;;;;;;;;5564525;25;20222;-80
2024/04/20 15:13:52;;;;;;;5.23;4.57;;;;;;;;;;5553154;25;20264;-80
2024/04/20 15:16:21;;;;;;;2.23;2.03;;;;;;;;;;5564145;25;20235;-80
2024/04/20 15:18:49;;;;;;;1.37;1.27;;;;;;;;;;5564957;25;20730;-80
2024/04/20 15:21:18;;;;;;;1.47;1.37;;;;;;;;;;5540682;25;20724;-79
2024/04/20 15:23:48;;;;;;;1.37;1.30;;;;;;;;;;5564888;25;20222;-79
2024/04/20 15:26:16;;;;;;;1.60;1.50;;;;;;;;;;5538560;25;20235;-79
2024/04/20 15:28:49;;;;;;;1.20;1.10;;;;;;;;;;5563963;25;20234;-80
2024/04/20 15:31:18;;;;;;;1.27;1.20;;;;;;;;;;5564155;25;20239;-80
2024/04/20 15:33:46;;;;;;;1.07;1.07;;;;;;;;;;5564250;25;20226;-79
2024/04/20 15:36:14;;;;;;;1.30;1.20;;;;;;;;;;5564423;25;20262;-80